Time;durP1;ratioP1;P1;durP2;ratioP2;P2;SDS_P1;SDS_P2;PMS_P1;PMS_P2;Temp;Humidity;BMP_temperature;BMP_pressure;BME280_temperature;BME280_humidity;BME280_pressure;Samples;Min_cycle;Max_cycle;Signal;HPM_P1;HPM_P2
2022/06/21 00:01:44;;;;;;;3.27;2.73;;;13.90;1.00;;;;;;5039054;28;20400;-72
2022/06/21 00:04:10;;;;;;;4.23;2.70;;;13.90;1.00;;;;;;5028954;28;20516;-72
2022/06/21 00:06:35;;;;;;;4.33;2.50;;;13.80;1.00;;;;;;5028937;28;20629;-72
2022/06/21 00:09:01;;;;;;;3.63;2.50;;;13.80;1.00;;;;;;5014027;28;20518;-72
2022/06/21 00:11:30;;;;;;;4.53;2.60;;;13.90;1.00;;;;;;5030571;28;20464;-72
2022/06/21 00:13:56;;;;;;;5.20;2.80;;;13.90;1.00;;;;;;5028666;28;20194;-72
2022/06/21 00:16:23;;;;;;;5.20;2.80;;;13.70;1.00;;;;;;5030915;28;20400;-72
2022/06/21 00:18:49;;;;;;;5.07;2.87;;;13.70;1.00;;;;;;5024255;28;20206;-72
2022/06/21 00:21:23;;;;;;;4.60;2.60;;;13.60;1.00;;;;;;5029710;28;20907;-72
2022/06/21 00:23:50;;;;;;;4.60;2.63;;;14.30;1.00;;;;;;5026501;28;20520;-72
2022/06/21 00:26:17;;;;;;;3.60;2.43;;;13.50;1.00;;;;;;5031148;28;20435;-72
2022/06/21 00:28:43;;;;;;;5.33;2.97;;;13.40;1.00;;;;;;5024961;28;20485;-71
2022/06/21 00:31:21;;;;;;;3.83;2.80;;;13.40;1.00;;;;;;5027151;28;20436;-72
2022/06/21 00:33:47;;;;;;;4.00;2.57;;;13.40;1.00;;;;;;5021928;28;20463;-72
2022/06/21 00:36:39;;;;;;;3.40;2.50;;;13.40;1.00;;;;;;5030551;28;20806;-72
2022/06/21 00:39:05;;;;;;;4.07;2.83;;;13.50;1.00;;;;;;5027453;28;20456;-72
2022/06/21 00:41:39;;;;;;;3.40;2.70;;;13.40;1.00;;;;;;5029932;28;20444;-72
2022/06/21 00:44:09;;;;;;;3.03;2.73;;;13.40;1.00;;;;;;5018687;28;20441;-72
2022/06/21 00:46:59;;;;;;;2.93;2.63;;;13.30;1.00;;;;;;5024516;28;20451;-72
2022/06/21 00:49:29;;;;;;;4.83;2.63;;;13.30;1.00;;;;;;5012707;28;20552;-73
2022/06/21 00:52:10;;;;;;;7.23;2.50;;;13.40;1.00;;;;;;5037348;28;20417;-72
2022/06/21 00:54:53;;;;;;;4.33;2.87;;;13.40;1.00;;;;;;5025064;28;20465;-72
2022/06/21 00:57:23;;;;;;;3.70;2.80;;;13.40;1.00;;;;;;5029209;28;20778;-72
2022/06/21 00:59:50;;;;;;;4.27;2.60;;;13.40;1.00;;;;;;5024490;28;20517;-73
2022/06/21 01:02:27;;;;;;;4.00;3.00;;;13.40;1.00;;;;;;5043951;28;20781;-72
2022/06/21 01:04:56;;;;;;;4.30;2.80;;;13.40;1.00;;;;;;5021939;28;20632;-71
2022/06/21 01:07:22;;;;;;;11.40;2.80;;;13.30;1.00;;;;;;5029369;28;20420;-72
2022/06/21 01:10:06;;;;;;;4.53;2.73;;;13.30;1.00;;;;;;5028201;28;20849;-72
2022/06/21 01:12:34;;;;;;;4.53;3.10;;;13.20;1.00;;;;;;5026770;28;20174;-71
2022/06/21 01:15:06;;;;;;;4.97;2.33;;;13.10;1.00;;;;;;5020195;28;20502;-72
2022/06/21 01:17:32;;;;;;;5.90;2.67;;;15.30;1.00;;;;;;5024902;28;20552;-72
2022/06/21 01:20:01;;;;;;;4.03;3.07;;;13.10;1.00;;;;;;5028884;28;20918;-72
2022/06/21 01:22:36;;;;;;;3.90;2.80;;;13.10;1.00;;;;;;5026347;28;20432;-72
2022/06/21 01:25:32;;;;;;;4.60;2.60;;;13.10;1.00;;;;;;5029699;28;20415;-72
2022/06/21 01:27:58;;;;;;;5.83;2.90;;;13.00;1.00;;;;;;5028499;28;20459;-72
2022/06/21 01:30:26;;;;;;;4.07;2.77;;;13.10;1.00;;;;;;5032032;28;20443;-72
2022/06/21 01:32:52;;;;;;;3.27;2.80;;;13.00;1.00;;;;;;5028777;28;20178;-72
2022/06/21 01:35:38;;;;;;;4.90;2.90;;;13.00;1.00;;;;;;5028287;28;20471;-72
2022/06/21 01:38:08;;;;;;;5.00;3.07;;;13.10;1.00;;;;;;5025474;28;20483;-72
2022/06/21 01:40:39;;;;;;;4.57;2.67;;;13.00;1.00;;;;;;5025926;28;20988;-71
2022/06/21 01:43:09;;;;;;;4.77;2.50;;;13.10;1.00;;;;;;5021186;28;20435;-72
2022/06/21 01:45:53;;;;;;;3.10;2.40;;;13.10;1.00;;;;;;5023032;28;20437;-72
2022/06/21 01:48:23;;;;;;;4.60;2.60;;;13.10;1.00;;;;;;5021950;28;20460;-72
2022/06/21 01:50:53;;;;;;;2.93;2.63;;;13.20;1.00;;;;;;5028956;28;20972;-72
2022/06/21 01:53:21;;;;;;;3.47;2.60;;;13.10;1.00;;;;;;5025853;28;20967;-72
2022/06/21 01:55:58;;;;;;;3.27;2.47;;;13.10;1.00;;;;;;5029641;28;20923;-72
2022/06/21 01:58:27;;;;;;;3.70;2.40;;;13.10;1.00;;;;;;5024636;28;20467;-72
2022/06/21 02:01:00;;;;;;;3.40;2.40;;;13.10;1.00;;;;;;5034891;28;20889;-72
2022/06/21 02:03:30;;;;;;;3.43;2.60;;;13.10;1.00;;;;;;5025444;28;20957;-72
2022/06/21 02:05:59;;;;;;;5.27;2.47;;;13.10;1.00;;;;;;5028308;28;20421;-72
2022/06/21 02:08:33;;;;;;;8.23;2.60;;;13.10;1.00;;;;;;5018784;28;20448;-72
2022/06/21 02:11:01;;;;;;;3.53;2.47;;;13.10;1.00;;;;;;5028528;28;20795;-72
2022/06/21 02:13:39;;;;;;;3.07;2.77;;;13.10;1.00;;;;;;5024943;28;20475;-72
2022/06/21 02:16:20;;;;;;;3.90;2.67;;;13.10;1.00;;;;;;5019899;28;20423;-72
2022/06/21 02:18:50;;;;;;;5.40;2.40;;;13.10;1.00;;;;;;5027691;28;20449;-72
2022/06/21 02:21:32;;;;;;;5.07;3.00;;;13.10;1.00;;;;;;5028015;28;20408;-72
2022/06/21 02:23:58;;;;;;;4.60;2.90;;;13.00;1.00;;;;;;5026708;28;20931;-72
2022/06/21 02:26:28;;;;;;;5.80;2.40;;;12.90;1.00;;;;;;5028781;28;20597;-72
2022/06/21 02:28:54;;;;;;;7.13;2.37;;;12.90;1.00;;;;;;5021554;28;20467;-72
2022/06/21 02:31:22;;;;;;;3.67;2.77;;;12.90;1.00;;;;;;5030345;28;20751;-72
2022/06/21 02:33:50;;;;;;;4.10;2.40;;;12.80;1.00;;;;;;5022573;28;20572;-72
2022/06/21 02:36:22;;;;;;;4.17;2.60;;;12.70;1.00;;;;;;5027877;28;20416;-71
2022/06/21 02:38:54;;;;;;;4.70;2.60;;;12.60;2.30;;;;;;5024962;28;21037;-72
2022/06/21 02:41:34;;;;;;;2.40;2.20;;;12.60;2.10;;;;;;5026658;28;20478;-72
2022/06/21 02:44:14;;;;;;;3.90;2.60;;;12.70;1.00;;;;;;5021924;28;20436;-72
2022/06/21 02:46:45;;;;;;;2.83;2.20;;;12.80;1.00;;;;;;5027254;28;20428;-72
2022/06/21 02:49:16;;;;;;;3.70;2.53;;;12.70;1.00;;;;;;5021964;28;20456;-72
2022/06/21 02:51:53;;;;;;;2.93;2.60;;;12.70;1.00;;;;;;5019726;28;20464;-72
2022/06/21 02:54:25;;;;;;;3.20;2.70;;;12.50;1.00;;;;;;5020101;28;20518;-72
2022/06/21 02:56:59;;;;;;;4.37;3.00;;;12.20;4.90;;;;;;5024576;28;20479;-72
2022/06/21 02:59:25;;;;;;;4.20;2.77;;;12.10;7.40;;;;;;5019145;28;20456;-72
2022/06/21 03:01:58;;;;;;;3.30;2.73;;;12.00;9.10;;;;;;5032345;28;20807;-72
2022/06/21 03:04:36;;;;;;;3.03;2.53;;;12.00;9.50;;;;;;5023380;28;20551;-72
2022/06/21 03:07:03;;;;;;;4.43;2.53;;;12.00;8.00;;;;;;5009491;28;20919;-72
2022/06/21 03:09:31;;;;;;;4.67;2.57;;;12.10;8.20;;;;;;5025105;28;20825;-72
2022/06/21 03:12:04;;;;;;;6.97;2.87;;;12.10;9.30;;;;;;5026279;28;20994;-72
2022/06/21 03:14:32;;;;;;;2.57;2.37;;;12.10;10.70;;;;;;5027011;28;20787;-72
2022/06/21 03:17:00;;;;;;;6.90;2.77;;;12.20;9.00;;;;;;5027056;28;20404;-72
2022/06/21 03:19:37;;;;;;;3.80;2.83;;;12.30;7.90;;;;;;5025970;28;20479;-72
2022/06/21 03:22:29;;;;;;;3.33;2.33;;;12.40;5.60;;;;;;5023491;28;20506;-72
2022/06/21 03:24:58;;;;;;;4.50;2.57;;;12.50;4.70;;;;;;5027059;28;20420;-72
2022/06/21 03:27:27;;;;;;;2.80;2.50;;;12.60;4.40;;;;;;5021950;28;20618;-72
2022/06/21 03:29:53;;;;;;;7.60;2.90;;;12.60;5.30;;;;;;5022211;28;20425;-72
2022/06/21 03:32:19;;;;;;;3.17;2.50;;;12.60;3.70;;;;;;5032683;28;20809;-72
2022/06/21 03:34:46;;;;;;;6.47;2.60;;;12.70;4.10;;;;;;5025658;28;20502;-72
2022/06/21 03:37:12;;;;;;;3.23;2.80;;;12.70;1.70;;;;;;5024531;28;20174;-72
2022/06/21 03:42:28;;;;;;;3.63;2.80;;;12.80;1.00;;;;;;5021350;28;20247;-72
2022/06/21 03:45:01;;;;;;;4.07;2.83;;;12.80;1.00;;;;;;5023916;28;20483;-72
2022/06/21 03:47:42;;;;;;;5.63;2.80;;;12.80;2.00;;;;;;5020047;28;20456;-72
2022/06/21 03:50:13;;;;;;;3.80;2.67;;;12.90;1.30;;;;;;5007375;28;20605;-72
2022/06/21 03:52:53;;;;;;;4.07;2.40;;;13.00;2.40;;;;;;5022296;28;20444;-71
2022/06/21 03:55:43;;;;;;;4.67;2.53;;;13.20;1.00;;;;;;5027506;28;20459;-72
2022/06/21 03:58:29;;;;;;;3.73;2.60;;;13.30;1.00;;;;;;5021889;28;20452;-72
2022/06/21 04:01:41;;;;;;;3.00;2.60;;;13.40;1.00;;;;;;5035400;28;20546;-72
2022/06/21 04:04:42;;;;;;;4.80;2.40;;;13.50;1.00;;;;;;5028827;28;20416;-72
2022/06/21 04:07:34;;;;;;;3.20;2.10;;;13.80;1.00;;;;;;5020879;28;21085;-72
2022/06/21 04:09:59;;;;;;;5.53;2.13;;;14.20;1.00;;;;;;5023931;28;20412;-72
2022/06/21 04:12:40;;;;;;;2.63;2.07;;;14.50;1.00;;;;;;5028560;28;20447;-72
2022/06/21 04:15:13;;;;;;;4.07;1.97;;;14.80;1.00;;;;;;5023323;28;20300;-72
2022/06/21 04:17:49;;;;;;;3.27;2.30;;;15.00;1.00;;;;;;5029493;28;20524;-72
2022/06/21 04:20:19;;;;;;;2.27;2.00;;;15.30;1.00;;;;;;5030395;28;20405;-72
2022/06/21 04:23:04;;;;;;;3.50;2.57;;;15.50;1.00;;;;;;5027847;28;20519;-72
2022/06/21 04:25:39;;;;;;;6.47;2.40;;;15.60;1.00;;;;;;5025888;28;20416;-72
2022/06/21 04:28:12;;;;;;;4.27;2.30;;;15.80;1.00;;;;;;5024653;28;20976;-72
2022/06/21 04:31:00;;;;;;;3.10;1.90;;;15.90;1.00;;;;;;5044332;28;20928;-72
2022/06/21 04:33:37;;;;;;;5.03;2.20;;;16.10;1.00;;;;;;5026847;28;20436;-72
2022/06/21 04:36:17;;;;;;;2.63;2.30;;;16.20;1.00;;;;;;5010538;28;20752;-72
2022/06/21 04:39:05;;;;;;;2.60;2.30;;;16.20;1.00;;;;;;5020882;28;20452;-73
2022/06/21 04:41:54;;;;;;;2.57;2.10;;;16.30;1.00;;;;;;5025422;28;21258;-72
2022/06/21 04:44:33;;;;;;;3.60;2.40;;;16.30;1.00;;;;;;5026464;28;20417;-72
2022/06/21 04:47:05;;;;;;;4.70;2.40;;;16.30;1.00;;;;;;5030571;28;20425;-73
2022/06/21 04:49:46;;;;;;;4.33;2.60;;;16.40;1.00;;;;;;5025898;28;20539;-72
2022/06/21 04:52:33;;;;;;;4.63;2.23;;;16.50;1.00;;;;;;5018938;28;20848;-73
2022/06/21 04:54:58;;;;;;;4.23;2.47;;;16.80;1.00;;;;;;5023451;28;20500;-72
2022/06/21 04:57:28;;;;;;;3.77;2.33;;;16.90;1.00;;;;;;5030390;28;20463;-72
2022/06/21 05:00:25;;;;;;;5.73;2.77;;;17.10;1.00;;;;;;5034177;28;20231;-73
2022/06/21 05:03:05;;;;;;;4.60;2.80;;;17.30;1.00;;;;;;5023029;28;20431;-73
2022/06/21 05:05:34;;;;;;;3.87;2.50;;;17.50;1.00;;;;;;5011132;28;20435;-72
2022/06/21 05:08:16;;;;;;;3.60;2.83;;;17.60;1.00;;;;;;5009470;28;20542;-73
2022/06/21 05:10:45;;;;;;;3.30;2.70;;;17.70;1.00;;;;;;5018353;28;20447;-73
2022/06/21 05:13:24;;;;;;;6.70;3.57;;;17.90;1.00;;;;;;5028997;28;20887;-73
2022/06/21 05:15:50;;;;;;;4.30;2.70;;;17.90;1.00;;;;;;5023989;28;20930;-73
2022/06/21 05:18:23;;;;;;;5.63;2.93;;;18.00;1.00;;;;;;5029382;28;20437;-73
2022/06/21 05:21:01;;;;;;;4.00;3.03;;;18.10;1.00;;;;;;5028137;28;20434;-73
2022/06/21 05:23:28;;;;;;;4.10;2.80;;;18.20;1.00;;;;;;5024403;28;20929;-73
2022/06/21 05:25:56;;;;;;;4.23;2.97;;;18.00;1.00;;;;;;5023185;28;20853;-73
2022/06/21 05:28:39;;;;;;;5.80;3.23;;;17.70;1.00;;;;;;5020038;28;20437;-73
2022/06/21 05:31:30;;;;;;;4.83;3.17;;;17.50;1.00;;;;;;5026115;28;20420;-73
2022/06/21 05:34:05;;;;;;;6.77;3.10;;;17.50;1.00;;;;;;5030014;28;20460;-73
2022/06/21 05:36:40;;;;;;;3.97;3.03;;;17.60;1.00;;;;;;5027589;28;20447;-72
2022/06/21 05:39:20;;;;;;;5.73;3.00;;;17.60;1.00;;;;;;5009509;28;20965;-72
2022/06/21 05:41:52;;;;;;;3.40;2.70;;;17.70;1.00;;;;;;5018989;28;20447;-72
2022/06/21 05:44:52;;;;;;;4.60;2.67;;;17.80;1.00;;;;;;5025968;28;20444;-72
2022/06/21 05:47:34;;;;;;;2.70;2.40;;;18.00;1.00;;;;;;5021931;28;20501;-73
2022/06/21 05:50:03;;;;;;;4.87;2.90;;;18.10;1.00;;;;;;5027279;28;20520;-72
2022/06/21 05:52:35;;;;;;;3.20;2.60;;;18.20;1.00;;;;;;5027738;28;20412;-72
2022/06/21 05:55:07;;;;;;;5.27;2.97;;;18.30;1.00;;;;;;5027762;28;20487;-73
2022/06/21 05:57:49;;;;;;;4.40;2.83;;;18.50;1.00;;;;;;5027214;28;20440;-72
2022/06/21 06:00:38;;;;;;;3.40;2.80;;;18.70;1.00;;;;;;5025634;28;20420;-73
2022/06/21 06:03:16;;;;;;;4.93;2.70;;;18.80;1.00;;;;;;5019422;28;20432;-72
2022/06/21 06:05:43;;;;;;;4.97;3.30;;;19.00;1.00;;;;;;5025387;28;20439;-72
2022/06/21 06:08:13;;;;;;;5.00;3.30;;;19.50;1.00;;;;;;5028161;28;20456;-72
2022/06/21 06:10:42;;;;;;;6.37;2.97;;;19.40;1.00;;;;;;5023919;28;20443;-73
2022/06/21 06:13:28;;;;;;;4.27;2.90;;;19.30;1.00;;;;;;5019270;28;20449;-72
2022/06/21 06:15:58;;;;;;;5.30;3.13;;;19.30;1.00;;;;;;5026464;28;20444;-73
2022/06/21 06:18:47;;;;;;;6.67;2.90;;;19.30;1.00;;;;;;5027877;28;20456;-72
2022/06/21 06:21:28;;;;;;;5.03;3.00;;;19.40;1.00;;;;;;5017606;28;20517;-73
2022/06/21 06:24:03;;;;;;;4.87;3.30;;;19.40;1.00;;;;;;5027395;28;20178;-74
2022/06/21 06:26:37;;;;;;;4.10;2.70;;;19.40;1.00;;;;;;5037292;28;20515;-73
2022/06/21 06:29:20;;;;;;;5.60;3.17;;;19.30;1.00;;;;;;5019467;28;20467;-72
2022/06/21 06:32:00;;;;;;;5.37;3.00;;;19.20;1.00;;;;;;5021199;28;20519;-73
2022/06/21 06:34:34;;;;;;;6.20;3.10;;;19.10;1.00;;;;;;5009932;28;20555;-72
2022/06/21 06:37:05;;;;;;;5.57;3.40;;;19.10;1.00;;;;;;5011176;28;20523;-72
2022/06/21 06:39:34;;;;;;;5.07;3.23;;;19.20;1.00;;;;;;5008297;28;20495;-72
2022/06/21 06:42:07;;;;;;;5.67;2.90;;;19.20;1.00;;;;;;5011099;28;20494;-72
2022/06/21 06:44:43;;;;;;;5.50;3.10;;;19.10;1.00;;;;;;5018782;28;20436;-72
2022/06/21 06:47:14;;;;;;;4.90;3.30;;;19.20;1.00;;;;;;5015533;28;21017;-73
2022/06/21 06:49:47;;;;;;;4.03;2.90;;;19.30;1.00;;;;;;5020520;28;20529;-75
2022/06/21 06:52:21;;;;;;;4.20;3.30;;;19.50;1.00;;;;;;5027444;28;20412;-75
2022/06/21 06:55:13;;;;;;;5.10;3.17;;;19.60;1.00;;;;;;5021418;28;20491;-74
2022/06/21 06:57:46;;;;;;;5.50;3.40;;;20.00;1.00;;;;;;5023801;28;20882;-75
2022/06/21 07:00:17;;;;;;;4.00;3.00;;;20.00;1.00;;;;;;5023252;28;20962;-75
2022/06/21 07:02:47;;;;;;;5.00;2.93;;;20.10;1.00;;;;;;5027652;28;20432;-75
2022/06/21 07:05:17;;;;;;;5.70;3.30;;;20.00;1.00;;;;;;5026846;28;20926;-75
2022/06/21 07:07:48;;;;;;;6.70;3.60;;;20.40;1.00;;;;;;5027275;28;20435;-74
2022/06/21 07:10:19;;;;;;;4.67;3.10;;;20.40;1.00;;;;;;5021349;28;20515;-75
2022/06/21 07:12:46;;;;;;;9.43;3.10;;;20.60;1.00;;;;;;5025176;28;20507;-74
2022/06/21 07:15:12;;;;;;;5.10;2.80;;;20.80;1.00;;;;;;5027221;28;20455;-76
2022/06/21 07:17:51;;;;;;;4.03;3.00;;;21.00;1.00;;;;;;5027729;28;20420;-74
2022/06/21 07:20:38;;;;;;;7.90;3.43;;;21.20;1.00;;;;;;5027185;28;20507;-73
2022/06/21 07:23:13;;;;;;;7.50;3.07;;;21.50;1.00;;;;;;5022726;28;20440;-73
2022/06/21 07:25:47;;;;;;;9.90;3.07;;;22.00;1.00;;;;;;5023624;28;20794;-73
2022/06/21 07:28:38;;;;;;;11.13;3.10;;;22.20;1.00;;;;;;5025349;28;20846;-73
2022/06/21 07:31:10;;;;;;;6.63;3.13;;;22.80;1.00;;;;;;5032893;28;20427;-74
2022/06/21 07:33:52;;;;;;;8.10;3.30;;;23.20;1.00;;;;;;5014616;28;20547;-73
2022/06/21 07:36:23;;;;;;;7.33;3.33;;;23.30;1.00;;;;;;5023220;28;20457;-74
2022/06/21 07:38:58;;;;;;;9.47;3.37;;;22.90;1.00;;;;;;5029367;28;20451;-73
2022/06/21 07:41:37;;;;;;;6.27;3.10;;;22.70;1.00;;;;;;5022217;28;20428;-74
2022/06/21 07:44:11;;;;;;;11.23;3.60;;;22.50;1.00;;;;;;5019910;28;20432;-74
2022/06/21 07:46:51;;;;;;;9.80;3.37;;;22.50;1.00;;;;;;5029732;28;20800;-74
2022/06/21 07:49:26;;;;;;;12.50;3.27;;;22.40;1.00;;;;;;5030931;28;20505;-73
2022/06/21 07:51:57;;;;;;;12.93;3.37;;;22.40;1.00;;;;;;5030224;28;20431;-73
2022/06/21 07:54:36;;;;;;;8.20;2.80;;;22.20;1.00;;;;;;5028187;28;20464;-74
2022/06/21 07:57:28;;;;;;;9.43;3.10;;;22.20;1.00;;;;;;5022012;28;20450;-74
2022/06/21 08:00:05;;;;;;;9.57;3.40;;;22.50;1.00;;;;;;5034773;28;20495;-74
2022/06/21 08:08:30;;;;;;;9.43;2.97;;;23.90;1.00;;;;;;5025071;28;20482;-75
2022/06/21 08:11:10;;;;;;;8.37;2.70;;;24.30;1.00;;;;;;5024736;28;20721;-74
2022/06/21 08:13:37;;;;;;;10.10;2.97;;;24.60;1.00;;;;;;5030968;28;20459;-74
2022/06/21 08:16:25;;;;;;;6.83;2.90;;;24.70;1.00;;;;;;5028211;28;20487;-74
2022/06/21 08:19:01;;;;;;;9.23;2.90;;;24.80;1.00;;;;;;5026976;28;20470;-74
2022/06/21 08:21:37;;;;;;;5.97;3.10;;;24.50;1.00;;;;;;5019101;28;20539;-74
2022/06/21 08:24:11;;;;;;;5.37;2.47;;;25.00;1.00;;;;;;5024220;28;20464;-74
2022/06/21 08:26:45;;;;;;;8.07;3.20;;;25.20;1.00;;;;;;5028663;28;20435;-74
2022/06/21 08:29:28;;;;;;;8.40;3.00;;;25.20;1.00;;;;;;5031163;28;20489;-74
2022/06/21 08:32:01;;;;;;;6.17;2.60;;;25.20;1.00;;;;;;5022669;28;20436;-74
2022/06/21 08:34:42;;;;;;;6.40;3.10;;;25.40;1.00;;;;;;5024407;28;20989;-74
2022/06/21 08:37:17;;;;;;;9.30;2.80;;;25.60;1.00;;;;;;5019975;28;20423;-74
2022/06/21 08:40:00;;;;;;;7.70;2.70;;;25.90;1.00;;;;;;5021318;28;20479;-74
2022/06/21 08:43:11;;;;;;;5.20;2.80;;;26.00;1.00;;;;;;5025835;28;20838;-75
2022/06/21 08:46:04;;;;;;;5.47;3.20;;;26.30;1.00;;;;;;5025552;28;20438;-74
2022/06/21 08:48:48;;;;;;;5.30;2.87;;;26.60;1.00;;;;;;5025245;28;20824;-73
2022/06/21 08:51:39;;;;;;;8.50;2.60;;;27.10;1.00;;;;;;5024423;28;20818;-72
2022/06/21 08:54:29;;;;;;;6.37;2.77;;;27.40;1.00;;;;;;5027995;28;20452;-73
2022/06/21 08:57:11;;;;;;;5.17;2.80;;;27.30;1.00;;;;;;5023531;28;20777;-73
2022/06/21 08:59:49;;;;;;;4.30;2.47;;;27.50;1.00;;;;;;5024144;28;20642;-73
2022/06/21 09:02:24;;;;;;;4.33;2.60;;;27.70;1.00;;;;;;5030701;28;20583;-73
2022/06/21 09:05:07;;;;;;;8.00;2.70;;;27.90;1.00;;;;;;5030694;28;20486;-73
2022/06/21 09:07:44;;;;;;;4.30;2.23;;;28.10;1.00;;;;;;5029646;28;20439;-73
2022/06/21 09:10:16;;;;;;;6.60;2.70;;;28.10;1.00;;;;;;5031151;28;20411;-73
2022/06/21 09:12:59;;;;;;;6.37;2.20;;;28.60;1.00;;;;;;5030302;28;20185;-73
2022/06/21 09:15:43;;;;;;;4.30;2.40;;;29.20;1.00;;;;;;5011194;28;20656;-74
2022/06/21 09:18:26;;;;;;;4.40;2.60;;;28.90;1.00;;;;;;5011734;28;20356;-73
2022/06/21 09:21:30;;;;;;;3.97;2.40;;;29.10;1.00;;;;;;5026523;28;20260;-74
2022/06/21 09:24:39;;;;;;;5.03;2.50;;;29.70;1.00;;;;;;5030498;28;20170;-73
2022/06/21 09:27:18;;;;;;;5.75;2.30;;;30.30;1.00;;;;;;5013100;28;20190;-74
2022/06/21 09:30:11;;;;;;;6.75;2.50;;;31.20;1.00;;;;;;5038887;28;20234;-74
2022/06/21 09:32:58;;;;;;;6.10;2.38;;;32.40;1.00;;;;;;5046770;28;20208;-74
2022/06/21 09:35:56;;;;;;;8.65;2.65;;;32.80;1.00;;;;;;5045673;28;20687;-74
2022/06/21 09:38:34;;;;;;;6.50;2.50;;;31.00;1.00;;;;;;5029775;28;20200;-74
2022/06/21 09:41:23;;;;;;;4.05;2.53;;;30.00;1.00;;;;;;5029842;28;20177;-74
2022/06/21 09:44:08;;;;;;;5.05;2.60;;;29.20;1.00;;;;;;5029233;28;20544;-74
2022/06/21 09:46:40;;;;;;;4.72;2.53;;;28.50;1.00;;;;;;5030008;28;20204;-74
2022/06/21 09:49:26;;;;;;;5.00;2.50;;;28.20;1.00;;;;;;5030525;28;20671;-73
2022/06/21 09:52:11;;;;;;;9.97;2.47;;;28.40;1.00;;;;;;5028188;28;20176;-73
2022/06/21 09:54:51;;;;;;;3.73;2.40;;;28.60;1.00;;;;;;5029174;28;20205;-73
2022/06/21 09:57:35;;;;;;;5.90;2.70;;;28.90;1.00;;;;;;5030186;28;20196;-74
2022/06/21 10:00:18;;;;;;;5.43;2.25;;;29.60;1.00;;;;;;5038334;28;20637;-74
2022/06/21 10:03:21;;;;;;;6.10;2.53;;;29.90;1.00;;;;;;5047041;28;20173;-73
2022/06/21 10:06:19;;;;;;;7.00;2.40;;;29.20;1.00;;;;;;5049704;28;20184;-74
2022/06/21 10:09:26;;;;;;;5.37;2.87;;;28.20;1.00;;;;;;5009996;28;20228;-74
2022/06/21 10:12:25;;;;;;;5.30;2.30;;;27.80;1.00;;;;;;5010096;28;20223;-73
2022/06/21 10:15:21;;;;;;;8.13;2.50;;;28.60;1.00;;;;;;5019873;28;20352;-74
2022/06/21 10:17:49;;;;;;;4.70;2.38;;;31.60;1.00;;;;;;5029608;28;20173;-74
2022/06/21 10:20:26;;;;;;;3.75;2.30;;;31.80;1.00;;;;;;5028149;28;20196;-74
2022/06/21 10:23:01;;;;;;;4.70;2.40;;;32.80;1.00;;;;;;5025055;28;20572;-74
2022/06/21 10:25:54;;;;;;;8.52;2.60;;;33.00;1.00;;;;;;5016543;28;20189;-74
2022/06/21 10:28:29;;;;;;;7.28;2.20;;;32.80;1.00;;;;;;5009831;28;20185;-73
2022/06/21 10:31:15;;;;;;;3.58;2.28;;;32.30;1.00;;;;;;5037731;28;20229;-74
2022/06/21 10:34:19;;;;;;;4.18;2.00;;;32.50;1.00;;;;;;5049384;28;20173;-75
2022/06/21 10:37:10;;;;;;;4.13;2.20;;;33.00;1.00;;;;;;5008819;28;20251;-74
2022/06/21 10:40:01;;;;;;;4.05;2.28;;;33.30;1.00;;;;;;5008329;28;20672;-75
2022/06/21 10:42:47;;;;;;;5.60;2.65;;;34.20;1.00;;;;;;5007952;28;20208;-75
2022/06/21 10:45:27;;;;;;;4.13;2.40;;;35.10;1.00;;;;;;5009922;28;20166;-75
2022/06/21 10:48:11;;;;;;;5.07;2.28;;;35.40;1.00;;;;;;5009667;28;20224;-75
2022/06/21 10:51:02;;;;;;;3.42;2.20;;;36.00;1.00;;;;;;5023443;28;20551;-75
2022/06/21 10:53:49;;;;;;;4.22;2.15;;;36.90;1.00;;;;;;5028839;28;20169;-75
2022/06/21 10:57:11;;;;;;;5.25;2.40;;;37.50;1.00;;;;;;5025825;28;20170;-75
2022/06/21 11:02:55;;;;;;;7.68;2.38;;;38.00;1.00;;;;;;5024573;28;20671;-75
2022/06/21 11:05:54;;;;;;;5.88;2.38;;;38.00;1.00;;;;;;5015076;28;20183;-75
2022/06/21 11:08:57;;;;;;;5.97;2.25;;;38.50;1.00;;;;;;5028133;28;20181;-75
2022/06/21 11:11:40;;;;;;;6.70;2.13;;;38.70;1.00;;;;;;5028622;28;20169;-75
2022/06/21 11:14:08;;;;;;;4.57;2.15;;;38.90;1.00;;;;;;5018257;28;20208;-75
2022/06/21 11:16:54;;;;;;;6.50;2.45;;;38.90;1.00;;;;;;5009770;28;20537;-75
2022/06/21 11:19:57;;;;;;;4.47;2.30;;;38.40;1.00;;;;;;5009492;28;20182;-75
2022/06/21 11:22:46;;;;;;;5.05;2.20;;;38.50;1.00;;;;;;5018337;28;20235;-75
2022/06/21 11:25:40;;;;;;;3.88;2.40;;;38.20;1.00;;;;;;5028778;28;20540;-75
2022/06/21 11:28:33;;;;;;;4.57;2.45;;;38.40;1.00;;;;;;5029161;28;20272;-75
2022/06/21 11:31:12;;;;;;;5.68;2.80;;;39.80;1.00;;;;;;5043036;28;20177;-76
2022/06/21 11:33:51;;;;;;;4.15;2.22;;;40.00;1.00;;;;;;5027852;28;20647;-75
2022/06/21 11:36:22;;;;;;;5.72;2.08;;;40.00;1.00;;;;;;5028347;28;20161;-75
2022/06/21 11:39:06;;;;;;;5.75;2.00;;;40.30;1.00;;;;;;5029156;28;20739;-75
2022/06/21 11:42:06;;;;;;;3.92;2.08;;;41.30;1.00;;;;;;5028371;28;20192;-75
2022/06/21 11:44:49;;;;;;;6.63;2.22;;;40.90;1.00;;;;;;5026587;28;20235;-76
2022/06/21 11:47:48;;;;;;;3.47;2.17;;;40.10;1.00;;;;;;5022752;28;20272;-75
2022/06/21 11:50:23;;;;;;;5.03;2.47;;;37.80;1.00;;;;;;5028391;28;20173;-75
2022/06/21 11:52:51;;;;;;;6.90;2.50;;;36.80;1.00;;;;;;5027347;28;20176;-75
2022/06/21 11:55:27;;;;;;;13.35;2.58;;;37.40;1.00;;;;;;5028928;28;20212;-75
2022/06/21 11:58:13;;;;;;;8.02;3.67;;;38.40;1.00;;;;;;5028774;28;20662;-75
2022/06/21 12:01:10;;;;;;;11.77;7.75;;;38.60;1.00;;;;;;5034378;28;20669;-75
2022/06/21 12:03:56;;;;;;;6.25;3.28;;;39.10;1.00;;;;;;5028728;28;20173;-75
2022/06/21 12:06:29;;;;;;;5.88;3.50;;;39.00;1.00;;;;;;5026317;28;20604;-75
2022/06/21 12:09:04;;;;;;;8.25;6.68;;;40.10;1.00;;;;;;5024147;28;20681;-75
2022/06/21 12:11:47;;;;;;;9.68;6.10;;;40.90;1.00;;;;;;5008424;28;20169;-75
2022/06/21 12:14:17;;;;;;;17.95;12.88;;;41.20;1.00;;;;;;5013815;28;20239;-75
2022/06/21 12:16:47;;;;;;;15.43;11.27;;;41.00;1.00;;;;;;5028118;28;20861;-75
2022/06/21 12:19:19;;;;;;;11.13;10.02;;;40.90;1.00;;;;;;5028208;28;20189;-76
2022/06/21 12:21:55;;;;;;;6.28;3.53;;;40.90;1.00;;;;;;5030521;28;20178;-75
2022/06/21 12:24:23;;;;;;;6.97;2.65;;;41.50;1.00;;;;;;5029116;28;20283;-75
2022/06/21 12:26:50;;;;;;;4.45;2.40;;;42.70;1.00;;;;;;5032370;28;20620;-75
2022/06/21 12:29:18;;;;;;;11.90;3.15;;;43.40;1.00;;;;;;5037468;28;20200;-75
2022/06/21 12:31:50;;;;;;;13.48;12.18;;;43.80;1.00;;;;;;5042797;28;20252;-75
2022/06/21 12:34:43;;;;;;;5.50;3.40;;;43.30;1.00;;;;;;5035958;28;20196;-75
2022/06/21 12:37:35;;;;;;;6.82;2.70;;;42.30;1.00;;;;;;5030971;28;20720;-75
2022/06/21 12:40:34;;;;;;;6.05;3.28;;;41.30;1.00;;;;;;5028857;28;20166;-75
2022/06/21 12:43:37;;;;;;;5.00;2.83;;;40.70;1.00;;;;;;5010990;28;20239;-76
2022/06/21 12:46:07;;;;;;;4.53;2.80;;;41.40;1.00;;;;;;5011984;28;20206;-75
2022/06/21 12:49:23;;;;;;;7.50;3.17;;;41.70;1.00;;;;;;5011561;28;20232;-75
2022/06/21 12:51:58;;;;;;;5.78;2.72;;;41.90;1.00;;;;;;5003013;28;20210;-75
2022/06/21 12:54:48;;;;;;;4.80;2.67;;;41.70;1.00;;;;;;5027683;28;20203;-76
2022/06/21 12:57:41;;;;;;;6.95;2.90;;;40.70;1.00;;;;;;5024729;28;20168;-75
2022/06/21 13:00:10;;;;;;;6.88;2.95;;;39.50;1.00;;;;;;5035336;28;20188;-75
2022/06/21 13:03:13;;;;;;;4.82;2.75;;;37.90;1.00;;;;;;5047007;28;20651;-74
2022/06/21 13:06:08;;;;;;;5.82;2.97;;;36.80;1.00;;;;;;5043212;28;20188;-75
2022/06/21 13:09:10;;;;;;;6.78;3.20;;;35.70;1.00;;;;;;5028641;28;20197;-74
2022/06/21 13:12:04;;;;;;;5.22;2.85;;;34.90;1.00;;;;;;5030378;28;20193;-74
2022/06/21 13:14:48;;;;;;;4.68;3.38;;;34.30;1.00;;;;;;5030113;28;20215;-74
2022/06/21 13:17:40;;;;;;;6.80;3.80;;;33.90;1.00;;;;;;5030963;28;20165;-72
2022/06/21 13:20:27;;;;;;;4.18;3.10;;;34.60;1.00;;;;;;5030473;28;20220;-73
2022/06/21 13:23:13;;;;;;;4.72;3.08;;;35.60;1.00;;;;;;5016506;28;20185;-74
2022/06/21 13:25:44;;;;;;;6.22;3.55;;;37.50;1.00;;;;;;5011232;28;20552;-74
2022/06/21 13:28:29;;;;;;;11.25;3.40;;;39.00;1.00;;;;;;5012120;28;20221;-74
2022/06/21 13:31:09;;;;;;;8.27;4.30;;;39.50;1.00;;;;;;5032483;28;20185;-74
2022/06/21 13:33:34;;;;;;;6.53;3.00;;;40.20;1.00;;;;;;5050593;28;20176;-75
2022/06/21 13:36:31;;;;;;;7.43;3.20;;;41.40;1.00;;;;;;5050039;28;20219;-73
2022/06/21 13:39:00;;;;;;;6.50;2.95;;;41.60;1.00;;;;;;5043796;28;20320;-74
2022/06/21 13:44:42;;;;;;;4.20;3.25;;;40.00;1.00;;;;;;5029258;28;20226;-74
2022/06/21 13:47:19;;;;;;;5.95;3.33;;;39.20;1.00;;;;;;5030560;28;20185;-75
2022/06/21 13:50:08;;;;;;;5.00;3.13;;;39.20;1.00;;;;;;5030025;28;20200;-74
2022/06/21 13:52:51;;;;;;;8.48;3.20;;;39.90;1.00;;;;;;5029296;28;20177;-75
2022/06/21 13:55:30;;;;;;;7.55;3.28;;;40.50;1.00;;;;;;5029649;28;20330;-74
2022/06/21 13:58:14;;;;;;;6.75;3.08;;;41.10;1.00;;;;;;5029916;28;20239;-74
2022/06/21 14:00:55;;;;;;;4.35;2.83;;;41.10;1.00;;;;;;5039083;28;20256;-74
2022/06/21 14:03:45;;;;;;;7.53;3.28;;;41.60;1.00;;;;;;5049963;28;20165;-74
2022/06/21 14:06:23;;;;;;;3.63;2.80;;;41.90;1.00;;;;;;5049459;28;20214;-74
2022/06/21 14:08:58;;;;;;;5.68;3.38;;;41.50;1.00;;;;;;5045961;28;20194;-74
2022/06/21 14:11:51;;;;;;;8.98;3.58;;;41.50;1.00;;;;;;5029391;28;20176;-74